createdAt,value
2023-04-24T00:00:00.215Z,1.00
2023-04-24T00:05:03.930Z,1.00
2023-04-24T00:10:07.705Z,1.00
2023-04-24T00:15:12.854Z,1.00
2023-04-24T00:20:15.780Z,1.00
2023-04-24T00:25:18.720Z,1.00
2023-04-24T00:30:22.763Z,1.00
2023-04-24T00:35:25.493Z,1.00
2023-04-24T00:40:29.155Z,1.00
2023-04-24T00:45:33.437Z,1.00
2023-04-24T00:50:40.529Z,10.40
2023-04-24T00:55:46.300Z,23.90
2023-04-24T01:00:56.739Z,33.30
2023-04-24T01:06:00.247Z,59.30
2023-04-24T01:11:05.290Z,76.30
2023-04-24T01:16:09.449Z,74.70
2023-04-24T01:21:15.768Z,99.90
2023-04-24T01:26:20.979Z,99.90
2023-04-24T01:31:23.809Z,97.90
2023-04-24T01:36:28.227Z,92.60
2023-04-24T01:41:32.623Z,99.90
2023-04-24T01:46:36.887Z,89.30
2023-04-24T01:51:39.870Z,99.90
2023-04-24T01:56:47.092Z,99.90
2023-04-24T02:01:49.830Z,99.90
2023-04-24T02:06:52.520Z,99.90
2023-04-24T02:11:57.380Z,99.90
2023-04-24T02:17:00.053Z,99.90
2023-04-24T02:22:02.733Z,99.90
2023-04-24T02:27:07.444Z,99.90
2023-04-24T02:32:12.945Z,99.90
2023-04-24T02:37:15.879Z,99.90
2023-04-24T02:42:19.847Z,99.90
2023-04-24T02:47:22.823Z,99.90
2023-04-24T02:52:25.624Z,99.90
2023-04-24T02:57:29.757Z,99.90
2023-04-24T03:02:32.632Z,99.90
2023-04-24T03:07:35.494Z,99.90
2023-04-24T03:12:39.546Z,99.90
2023-04-24T03:17:42.412Z,99.90
2023-04-24T03:22:45.325Z,99.90
2023-04-24T03:27:49.426Z,99.90
2023-04-24T03:32:52.228Z,99.90
2023-04-24T03:37:55.015Z,99.90
2023-04-24T03:42:59.126Z,99.90
2023-04-24T03:48:01.869Z,99.90
2023-04-24T03:53:04.658Z,99.90
2023-04-24T03:58:08.694Z,99.90
2023-04-24T04:03:11.594Z,99.90
2023-04-24T04:08:14.342Z,99.90
2023-04-24T04:13:18.358Z,99.90
2023-04-24T04:18:21.124Z,99.90
2023-04-24T04:23:23.963Z,99.90
2023-04-24T04:28:28.431Z,99.90
2023-04-24T04:33:31.974Z,99.90
2023-04-24T04:38:37.004Z,99.90
2023-04-24T04:43:41.666Z,7.00
2023-04-24T04:48:47.121Z,1.00
2023-04-24T04:53:49.806Z,1.00
2023-04-24T04:58:54.088Z,1.00
2023-04-24T05:03:59.240Z,1.00
2023-04-24T05:09:05.492Z,1.00
2023-04-24T05:14:09.533Z,1.00
2023-04-24T05:19:12.740Z,1.00
2023-04-24T05:24:15.506Z,1.00
2023-04-24T05:29:32.730Z,99.90
2023-04-24T05:34:35.977Z,1.00
2023-04-24T05:39:41.439Z,1.00
2023-04-24T05:44:45.792Z,1.00
2023-04-24T05:49:48.529Z,1.00
2023-04-24T05:54:51.432Z,7.40
2023-04-24T05:59:56.164Z,1.00
2023-04-24T06:05:00.225Z,99.90
2023-04-24T06:10:02.981Z,1.00
2023-04-24T06:15:09.112Z,99.90
2023-04-24T06:20:12.879Z,1.00
2023-04-24T06:25:27.080Z,99.90
2023-04-24T06:30:37.832Z,1.00
2023-04-24T06:35:43.427Z,99.90
2023-04-24T06:40:54.364Z,1.00
2023-04-24T06:46:07.474Z,99.90
2023-04-24T06:51:10.276Z,1.00
2023-04-24T06:56:12.945Z,1.00
2023-04-24T07:01:16.971Z,1.00
2023-04-24T07:06:22.352Z,1.00
2023-04-24T07:11:25.626Z,1.00
2023-04-24T07:16:31.157Z,99.90
2023-04-24T07:21:34.014Z,99.90
2023-04-24T07:26:36.768Z,99.90
2023-04-24T07:31:42.044Z,15.70
2023-04-24T07:36:44.872Z,1.00
2023-04-24T07:41:47.513Z,1.00
2023-04-24T07:46:51.545Z,69.10
2023-04-24T07:51:54.214Z,93.90
2023-04-24T07:56:56.879Z,99.90
2023-04-24T08:02:02.743Z,99.90
2023-04-24T08:07:09.423Z,99.90
2023-04-24T08:12:15.342Z,34.60
2023-04-24T08:17:21.739Z,1.00
2023-04-24T08:22:27.441Z,1.00
2023-04-24T08:27:31.267Z,1.00
2023-04-24T08:32:40.856Z,1.00
2023-04-24T08:37:43.702Z,1.00
2023-04-24T08:42:47.183Z,1.00
2023-04-24T08:47:53.576Z,1.00
2023-04-24T08:52:58.429Z,1.00
2023-04-24T08:58:03.606Z,1.00
2023-04-24T09:03:08.565Z,1.00
2023-04-24T09:08:12.455Z,1.00
2023-04-24T09:13:15.924Z,1.00
2023-04-24T09:18:22.551Z,1.00
2023-04-24T09:23:28.430Z,1.00
2023-04-24T09:28:33.802Z,1.00
2023-04-24T09:33:39.062Z,1.00
2023-04-24T09:38:41.964Z,1.00
2023-04-24T09:43:45.100Z,1.00
2023-04-24T09:48:51.088Z,1.00
2023-04-24T09:53:55.551Z,1.00
2023-04-24T09:59:08.224Z,1.00
2023-04-24T10:04:21.689Z,1.00
2023-04-24T10:09:27.917Z,1.00
2023-04-24T10:14:32.918Z,1.00
2023-04-24T10:19:39.823Z,1.00
2023-04-24T10:24:46.367Z,1.00
2023-04-24T10:29:52.011Z,1.00
2023-04-24T10:34:58.221Z,1.00
2023-04-24T10:40:02.256Z,1.00
2023-04-24T10:45:08.064Z,1.00
2023-04-24T10:50:15.401Z,1.00
2023-04-24T10:55:20.801Z,1.00
2023-04-24T11:00:28.632Z,1.00
2023-04-24T11:05:58.303Z,1.00
2023-04-24T11:11:04.598Z,1.00
2023-04-24T11:16:23.027Z,1.00
2023-04-24T11:21:33.817Z,1.00
2023-04-24T11:26:44.102Z,1.00
2023-04-24T11:31:51.012Z,1.00
2023-04-24T11:36:56.345Z,1.00
2023-04-24T11:42:08.344Z,1.00
2023-04-24T11:47:12.460Z,1.00
2023-04-24T11:52:20.729Z,1.00
2023-04-24T11:57:29.605Z,1.00
2023-04-24T12:02:33.312Z,1.00
2023-04-24T12:07:44.405Z,1.00
2023-04-24T12:12:51.929Z,1.00
2023-04-24T12:17:57.476Z,1.00
2023-04-24T12:23:04.632Z,1.00
2023-04-24T12:28:14.760Z,1.00
2023-04-24T12:33:20.292Z,1.00
2023-04-24T12:38:26.829Z,1.00
2023-04-24T12:43:29.514Z,1.00
2023-04-24T12:48:33.167Z,1.00
2023-04-24T12:53:37.271Z,1.00
2023-04-24T12:58:39.926Z,1.00
2023-04-24T13:03:43.784Z,99.90
2023-04-24T13:08:48.749Z,99.90
2023-04-24T13:13:53.685Z,99.90
2023-04-24T13:18:57.614Z,99.90
2023-04-24T13:24:01.590Z,99.90
2023-04-24T13:29:04.699Z,99.90
2023-04-24T13:34:07.532Z,99.90
2023-04-24T13:39:12.390Z,99.90
2023-04-24T13:44:15.185Z,99.90
2023-04-24T13:49:18.260Z,99.90
2023-04-24T13:54:24.160Z,99.90
2023-04-24T13:59:26.937Z,99.90
2023-04-24T14:04:29.814Z,99.90
2023-04-24T14:09:34.025Z,99.90
2023-04-24T14:14:36.800Z,99.90
2023-04-24T14:19:39.437Z,99.90
2023-04-24T14:24:43.407Z,99.90
2023-04-24T14:29:46.859Z,99.90
2023-04-24T14:34:50.618Z,99.90
2023-04-24T14:40:11.039Z,99.90
2023-04-24T14:45:17.408Z,99.90
2023-04-24T14:50:22.969Z,99.90
2023-04-24T14:55:28.528Z,99.90
2023-04-24T15:00:31.494Z,99.90
2023-04-24T15:05:34.758Z,99.90
2023-04-24T15:10:39.107Z,99.90
2023-04-24T15:15:42.103Z,99.90
2023-04-24T15:20:44.827Z,99.90
2023-04-24T15:25:49.161Z,99.90
2023-04-24T15:30:51.808Z,99.90
2023-04-24T15:35:54.491Z,99.90
2023-04-24T15:40:58.609Z,99.90
2023-04-24T15:46:01.436Z,99.90
2023-04-24T15:51:04.233Z,99.90
2023-04-24T15:56:08.218Z,99.90
2023-04-24T16:01:13.137Z,99.90
2023-04-24T16:06:15.881Z,99.90
2023-04-24T16:11:20.208Z,99.90
2023-04-24T16:16:24.434Z,99.90
2023-04-24T16:21:29.431Z,99.90
2023-04-24T16:26:33.494Z,99.90
2023-04-24T16:31:36.328Z,99.90
2023-04-24T16:36:39.154Z,99.90
2023-04-24T16:41:43.712Z,1.00
2023-04-24T16:46:46.518Z,1.00
2023-04-24T16:51:49.270Z,1.00
2023-04-24T16:56:54.819Z,1.00
2023-04-24T17:01:57.525Z,1.00
2023-04-24T17:07:00.220Z,1.00
2023-04-24T17:12:04.363Z,1.00
2023-04-24T17:17:07.485Z,1.00
2023-04-24T17:22:10.266Z,1.00
2023-04-24T17:27:15.346Z,1.00
2023-04-24T17:32:18.433Z,1.00
2023-04-24T17:37:23.298Z,1.00
2023-04-24T17:42:27.512Z,1.00
2023-04-24T17:47:30.652Z,1.00
2023-04-24T17:52:34.305Z,1.00
2023-04-24T17:57:38.317Z,1.00
2023-04-24T18:02:41.089Z,1.00
2023-04-24T18:07:43.773Z,99.90
2023-04-24T18:12:47.893Z,99.90
2023-04-24T18:17:50.681Z,99.90
2023-04-24T18:22:53.725Z,99.90
2023-04-24T18:27:57.836Z,99.90
2023-04-24T18:33:00.559Z,99.90
2023-04-24T18:38:03.310Z,99.90
2023-04-24T18:43:07.491Z,99.90
2023-04-24T18:48:10.265Z,1.00
2023-04-24T18:53:15.214Z,1.00
2023-04-24T18:58:19.226Z,1.00
2023-04-24T19:03:22.061Z,1.00
2023-04-24T19:08:24.814Z,1.00
2023-04-24T19:13:29.029Z,1.00
2023-04-24T19:18:31.667Z,1.00
2023-04-24T19:23:36.550Z,1.00
2023-04-24T19:28:40.508Z,1.00
2023-04-24T19:33:43.290Z,1.00
2023-04-24T19:38:46.385Z,1.00
2023-04-24T19:43:50.770Z,1.00
2023-04-24T19:48:53.429Z,1.00
2023-04-24T19:53:56.117Z,1.00
2023-04-24T19:59:00.136Z,99.90
2023-04-24T20:04:03.504Z,99.90
2023-04-24T20:09:06.595Z,99.90
2023-04-24T20:14:10.592Z,1.00
2023-04-24T20:19:13.317Z,1.00
2023-04-24T20:24:16.287Z,1.00
2023-04-24T20:29:20.352Z,1.00
2023-04-24T20:34:23.532Z,1.00
2023-04-24T20:39:26.610Z,1.00
2023-04-24T20:44:30.577Z,1.00
2023-04-24T20:49:33.273Z,1.00
2023-04-24T20:54:36.076Z,1.00
2023-04-24T20:59:40.156Z,1.00
2023-04-24T21:04:42.840Z,99.90
2023-04-24T21:09:45.510Z,99.90
2023-04-24T21:14:51.243Z,99.90
2023-04-24T21:19:56.278Z,1.00
2023-04-24T21:24:59.064Z,1.00
2023-04-24T21:30:03.549Z,1.00
2023-04-24T21:35:06.997Z,99.90
2023-04-24T21:40:11.534Z,99.90
2023-04-24T21:45:15.672Z,1.00
2023-04-24T21:50:18.390Z,1.00
2023-04-24T21:55:21.611Z,99.90
2023-04-24T22:00:25.981Z,1.00
2023-04-24T22:05:30.711Z,99.90
2023-04-24T22:10:33.367Z,94.60
2023-04-24T22:15:37.380Z,1.00
2023-04-24T22:20:40.126Z,1.00
2023-04-24T22:25:42.783Z,99.90
2023-04-24T22:30:46.824Z,99.90
2023-04-24T22:35:49.456Z,99.90
2023-04-24T22:40:52.140Z,99.90
2023-04-24T22:45:56.283Z,99.90
2023-04-24T22:50:58.939Z,1.00
2023-04-24T22:56:01.649Z,24.20
2023-04-24T23:01:05.810Z,1.00
2023-04-24T23:06:08.684Z,99.90
2023-04-24T23:11:11.360Z,99.90
2023-04-24T23:16:15.958Z,1.00
2023-04-24T23:21:18.718Z,1.00
2023-04-24T23:26:21.408Z,1.00
2023-04-24T23:31:25.467Z,1.00
2023-04-24T23:36:28.297Z,1.00
2023-04-24T23:41:31.344Z,1.00
2023-04-24T23:46:35.410Z,1.00
2023-04-24T23:51:38.192Z,99.90
2023-04-24T23:56:40.867Z,1.00
